Hlavní strana
METAR-TAF:

METAR-TAF

Letiště :

Ørsta-Volda, Norsko

zeměpisná šířka: 62-11N, zeměpisná délka: 006-04E, výška: 7 m

Aktuální stav počasí

Zpráva byla vytvořena před 12 hodinami a 32 minutami, v 11:20 UTC
vítr z různých směrů 5 kt
Teplota 10°C
Vlhkost vzduchu 62%
Tlak 1020 hPa
Viditelnost 10 km a více
Skoro jasno ve výšce 3200 ft
Oblačno až skoro zataženo ve výšce 4000 ft
přeháňky v blízkosti

METAR: ENOV 201120Z VRB05KT 9999 VCSH FEW032 BKN040 10/03 Q1020 RMK WIND 2175FT 17017KT

Čas: 01:52 (23:52 UTC)


TAF: chybějící

Stav a předpovědi počasí z více než 4 000 letišť (zprávy METAR a TAF).

Červené a žluté tečky na mapě představují dostupné meteorologické stanice.

Když kurzor umístíte na tečku, zobrazí se název stanice.

Pak kliknutím zobrazíte stav a předpověď počasí.

Chcete-li změnit mapu, kliknutím na zelené tlačítko se znaménkem +mapu přiblížíte, kliknutím na zelené tlačítko se znaménkem – mapu oddálíte a kliknutím na zelené šipky přejdete na sousední mapy.


METAR-TAF: